Time;durP1;ratioP1;P1;durP2;ratioP2;P2;SDS_P1;SDS_P2;PMS_P1;PMS_P2;Temp;Humidity;BMP_temperature;BMP_pressure;BME280_temperature;BME280_humidity;BME280_pressure;Samples;Min_cycle;Max_cycle;Signal;HPM_P1;HPM_P2
2023/08/05 00:00:09;;;;;;;1.58;0.98;;;;;;;;;;5027935;28;20044;-75
2023/08/05 00:02:35;;;;;;;0.55;0.55;;;;;;;;;;4991866;28;20509;-77
2023/08/05 00:05:00;;;;;;;0.82;0.80;;;;;;;;;;5027711;28;20045;-75
2023/08/05 00:07:25;;;;;;;0.60;0.60;;;;;;;;;;5027042;28;20385;-78
2023/08/05 00:09:51;;;;;;;1.00;0.90;;;;;;;;;;5027961;28;20139;-77
2023/08/05 00:12:16;;;;;;;1.40;1.05;;;;;;;;;;5028419;28;20095;-77
2023/08/05 00:14:42;;;;;;;1.65;0.98;;;;;;;;;;5016733;28;20163;-77
2023/08/05 00:17:07;;;;;;;1.58;1.20;;;;;;;;;;5016332;28;20041;-77
2023/08/05 00:19:32;;;;;;;1.13;0.90;;;;;;;;;;5027314;28;20042;-77
2023/08/05 00:21:58;;;;;;;2.08;0.60;;;;;;;;;;5009601;28;20055;-76
2023/08/05 00:24:23;;;;;;;1.10;0.70;;;;;;;;;;5022708;28;20095;-78
2023/08/05 00:26:48;;;;;;;0.82;0.82;;;;;;;;;;5030566;28;20140;-77
2023/08/05 00:29:14;;;;;;;1.05;0.80;;;;;;;;;;5019915;28;20041;-77
2023/08/05 00:31:39;;;;;;;1.48;1.05;;;;;;;;;;5026261;28;20045;-77
2023/08/05 00:34:05;;;;;;;1.60;0.90;;;;;;;;;;5028511;28;20033;-76
2023/08/05 00:36:30;;;;;;;1.17;1.08;;;;;;;;;;5026817;28;20041;-77
2023/08/05 00:38:56;;;;;;;0.80;0.80;;;;;;;;;;5032666;28;20033;-76
2023/08/05 00:41:21;;;;;;;1.17;1.05;;;;;;;;;;5030292;28;20029;-76
2023/08/05 00:43:47;;;;;;;1.77;1.00;;;;;;;;;;5022697;28;20040;-77
2023/08/05 00:46:13;;;;;;;1.67;1.08;;;;;;;;;;5030573;28;20124;-77
2023/08/05 00:48:39;;;;;;;1.30;1.20;;;;;;;;;;5015471;28;20471;-77
2023/08/05 00:51:06;;;;;;;0.80;0.80;;;;;;;;;;5029648;28;20363;-77
2023/08/05 00:53:34;;;;;;;1.27;1.00;;;;;;;;;;5020443;28;20054;-77
2023/08/05 00:56:00;;;;;;;1.52;0.70;;;;;;;;;;5027828;28;20112;-80
2023/08/05 00:58:26;;;;;;;3.22;1.00;;;;;;;;;;5021045;28;20106;-77
2023/08/05 01:00:51;;;;;;;1.30;0.90;;;;;;;;;;5024733;28;20038;-77
2023/08/05 01:03:17;;;;;;;0.80;0.80;;;;;;;;;;5031785;28;20041;-78
2023/08/05 01:05:44;;;;;;;1.23;1.00;;;;;;;;;;5031462;28;20037;-77
2023/08/05 01:08:11;;;;;;;1.15;1.02;;;;;;;;;;5027727;28;20454;-77
2023/08/05 01:10:36;;;;;;;1.70;1.00;;;;;;;;;;5034487;28;20040;-76
2023/08/05 01:13:02;;;;;;;1.40;1.30;;;;;;;;;;5015004;28;20037;-78
2023/08/05 01:15:27;;;;;;;1.75;1.20;;;;;;;;;;5022832;28;20573;-78
2023/08/05 01:17:55;;;;;;;2.83;1.40;;;;;;;;;;5031220;28;20044;-77
2023/08/05 01:20:27;;;;;;;2.45;1.42;;;;;;;;;;5036612;28;20586;-77
2023/08/05 01:22:54;;;;;;;3.30;1.35;;;;;;;;;;5034808;28;20256;-78
2023/08/05 01:25:32;;;;;;;2.05;1.95;;;;;;;;;;5020495;28;20124;-77
2023/08/05 01:27:59;;;;;;;1.23;1.00;;;;;;;;;;5034034;28;20121;-77
2023/08/05 01:30:26;;;;;;;1.55;1.20;;;;;;;;;;5033067;28;20040;-78
2023/08/05 01:32:52;;;;;;;1.50;1.40;;;;;;;;;;5014679;28;20098;-78
2023/08/05 01:35:21;;;;;;;2.05;1.08;;;;;;;;;;5014608;28;20048;-77
2023/08/05 01:37:49;;;;;;;1.35;1.20;;;;;;;;;;4999414;28;20072;-77
2023/08/05 01:40:14;;;;;;;1.45;1.00;;;;;;;;;;5020005;28;20095;-78
2023/08/05 01:42:40;;;;;;;1.38;1.27;;;;;;;;;;5019347;28;20040;-79
2023/08/05 01:45:06;;;;;;;2.38;1.42;;;;;;;;;;5028027;28;20061;-80
2023/08/05 01:47:32;;;;;;;1.33;1.10;;;;;;;;;;5029339;28;20041;-77
2023/08/05 01:49:57;;;;;;;1.02;0.88;;;;;;;;;;5031477;28;20094;-76
2023/08/05 01:52:23;;;;;;;1.45;1.35;;;;;;;;;;5020885;28;20033;-77
2023/08/05 01:54:48;;;;;;;1.98;1.60;;;;;;;;;;5025504;28;20184;-76
2023/08/05 01:57:13;;;;;;;1.40;1.30;;;;;;;;;;5033336;28;20037;-77
2023/08/05 01:59:39;;;;;;;1.83;1.25;;;;;;;;;;5034846;28;20041;-76
2023/08/05 02:02:05;;;;;;;1.20;1.10;;;;;;;;;;5032290;28;20470;-76
2023/08/05 02:04:30;;;;;;;1.40;1.30;;;;;;;;;;5018753;28;20041;-76
2023/08/05 02:06:56;;;;;;;1.35;1.00;;;;;;;;;;5017451;28;20049;-77
2023/08/05 02:09:21;;;;;;;2.67;1.42;;;;;;;;;;5015417;28;20124;-76
2023/08/05 02:11:46;;;;;;;0.88;0.88;;;;;;;;;;5019102;28;20036;-78
2023/08/05 02:14:12;;;;;;;1.40;1.30;;;;;;;;;;5012341;28;20063;-76
2023/08/05 02:16:37;;;;;;;1.27;1.17;;;;;;;;;;5016873;28;20075;-77
2023/08/05 02:19:02;;;;;;;1.88;1.10;;;;;;;;;;5018843;28;20088;-77
2023/08/05 02:21:28;;;;;;;1.05;1.02;;;;;;;;;;5016665;28;20045;-77
2023/08/05 02:23:54;;;;;;;1.30;0.90;;;;;;;;;;5030797;28;20041;-77
2023/08/05 02:26:19;;;;;;;2.00;1.20;;;;;;;;;;5032039;28;20056;-78
2023/08/05 02:28:46;;;;;;;0.95;0.95;;;;;;;;;;5033629;28;20047;-75
2023/08/05 02:31:12;;;;;;;1.02;1.00;;;;;;;;;;5010037;28;20113;-80
2023/08/05 02:33:38;;;;;;;0.98;0.90;;;;;;;;;;5020761;28;20033;-78
2023/08/05 02:36:03;;;;;;;1.17;1.08;;;;;;;;;;5029707;28;20099;-76
2023/08/05 02:38:29;;;;;;;1.33;0.90;;;;;;;;;;5003669;28;20521;-77
2023/08/05 02:40:55;;;;;;;0.88;0.88;;;;;;;;;;5021758;28;22073;-77
2023/08/05 02:43:21;;;;;;;0.90;0.90;;;;;;;;;;5031439;28;20541;-77
2023/08/05 02:45:56;;;;;;;1.65;1.25;;;;;;;;;;5032640;28;20041;-75
2023/08/05 02:48:22;;;;;;;1.13;1.02;;;;;;;;;;5018809;28;21463;-78
2023/08/05 02:50:48;;;;;;;1.15;1.05;;;;;;;;;;5010961;28;20041;-78
2023/08/05 02:53:14;;;;;;;1.13;1.10;;;;;;;;;;5027408;28;20041;-77
2023/08/05 02:55:39;;;;;;;1.08;0.98;;;;;;;;;;5024204;28;20047;-75
2023/08/05 02:58:04;;;;;;;1.13;1.00;;;;;;;;;;5033627;28;20578;-76
2023/08/05 03:00:30;;;;;;;0.80;0.80;;;;;;;;;;5013902;28;20132;-78
2023/08/05 03:02:55;;;;;;;0.98;0.98;;;;;;;;;;5029756;28;20049;-77
2023/08/05 03:05:21;;;;;;;0.88;0.88;;;;;;;;;;5021805;28;20510;-78
2023/08/05 03:07:46;;;;;;;1.27;0.90;;;;;;;;;;5024199;28;20052;-76
2023/08/05 03:10:11;;;;;;;1.92;1.00;;;;;;;;;;5017978;28;20041;-77
2023/08/05 03:12:37;;;;;;;1.33;1.23;;;;;;;;;;5024845;28;20493;-78
2023/08/05 03:15:02;;;;;;;0.80;0.80;;;;;;;;;;5013375;28;20048;-76
2023/08/05 03:17:28;;;;;;;1.50;1.08;;;;;;;;;;5027462;28;20425;-76
2023/08/05 03:19:53;;;;;;;1.17;1.10;;;;;;;;;;5005083;28;20544;-75
2023/08/05 03:22:19;;;;;;;2.05;1.40;;;;;;;;;;5021819;28;20080;-76
2023/08/05 03:24:44;;;;;;;1.58;1.40;;;;;;;;;;5030072;28;20652;-78
2023/08/05 03:27:10;;;;;;;1.55;1.30;;;;;;;;;;5032800;28;20107;-76
2023/08/05 03:29:35;;;;;;;1.10;1.00;;;;;;;;;;5015208;28;20060;-77
2023/08/05 03:32:00;;;;;;;1.05;0.93;;;;;;;;;;5027527;28;20040;-76
2023/08/05 03:34:26;;;;;;;1.27;1.10;;;;;;;;;;5025135;28;20033;-76
2023/08/05 03:36:52;;;;;;;1.55;1.20;;;;;;;;;;5020896;28;20544;-76
2023/08/05 03:39:18;;;;;;;1.75;1.13;;;;;;;;;;5032538;28;20045;-78
2023/08/05 03:41:45;;;;;;;1.85;1.25;;;;;;;;;;5030047;28;20188;-77
2023/08/05 03:44:10;;;;;;;2.00;0.90;;;;;;;;;;5017755;28;20116;-77
2023/08/05 03:46:37;;;;;;;0.93;0.90;;;;;;;;;;5029712;28;20183;-76
2023/08/05 03:49:03;;;;;;;1.77;1.02;;;;;;;;;;5029044;28;20601;-75
2023/08/05 03:51:29;;;;;;;1.02;0.98;;;;;;;;;;5024571;28;20052;-75
2023/08/05 03:53:56;;;;;;;1.23;1.13;;;;;;;;;;5007829;28;20189;-75
2023/08/05 03:56:24;;;;;;;1.60;1.00;;;;;;;;;;5028982;28;20060;-77
2023/08/05 03:58:51;;;;;;;1.00;1.00;;;;;;;;;;4993299;28;20111;-76
2023/08/05 04:01:17;;;;;;;1.55;0.95;;;;;;;;;;5026402;28;20094;-75
2023/08/05 04:03:44;;;;;;;1.10;1.00;;;;;;;;;;5039484;28;20143;-75
2023/08/05 04:06:11;;;;;;;1.98;1.30;;;;;;;;;;5057298;28;20090;-76
2023/08/05 04:08:38;;;;;;;1.30;1.20;;;;;;;;;;5057075;28;20075;-76
2023/08/05 04:11:05;;;;;;;1.20;1.10;;;;;;;;;;5037319;28;20119;-76
2023/08/05 04:13:33;;;;;;;1.30;1.20;;;;;;;;;;5040933;28;20097;-77
2023/08/05 04:16:03;;;;;;;1.48;1.27;;;;;;;;;;5051469;28;20147;-76
2023/08/05 04:18:29;;;;;;;1.67;1.23;;;;;;;;;;5034654;28;20504;-77
2023/08/05 04:20:56;;;;;;;1.02;1.02;;;;;;;;;;5043301;28;20281;-76
2023/08/05 04:23:23;;;;;;;1.10;1.00;;;;;;;;;;5046881;28;20028;-76
2023/08/05 04:25:49;;;;;;;0.98;0.90;;;;;;;;;;5030434;28;20824;-78
2023/08/05 04:28:14;;;;;;;2.33;1.38;;;;;;;;;;5047234;28;20559;-77
2023/08/05 04:30:43;;;;;;;1.10;1.00;;;;;;;;;;5048854;28;20056;-77
2023/08/05 04:33:08;;;;;;;1.30;1.20;;;;;;;;;;5043951;28;20094;-75
2023/08/05 04:35:35;;;;;;;1.30;1.20;;;;;;;;;;5052446;28;20040;-76
2023/08/05 04:38:00;;;;;;;1.25;1.15;;;;;;;;;;5044019;28;20701;-75
2023/08/05 04:40:25;;;;;;;1.55;1.45;;;;;;;;;;5035079;28;20033;-75
2023/08/05 04:42:51;;;;;;;1.42;1.33;;;;;;;;;;5053191;28;20033;-76
2023/08/05 04:45:16;;;;;;;1.75;1.40;;;;;;;;;;5035008;28;20036;-75
2023/08/05 04:47:42;;;;;;;1.60;1.50;;;;;;;;;;5053361;28;20035;-76
2023/08/05 04:50:07;;;;;;;2.15;1.50;;;;;;;;;;5056237;28;20060;-76
2023/08/05 04:52:33;;;;;;;1.42;1.33;;;;;;;;;;5037259;28;20045;-75
2023/08/05 04:55:08;;;;;;;1.92;1.60;;;;;;;;;;5046358;28;20063;-76
2023/08/05 04:57:34;;;;;;;1.40;1.23;;;;;;;;;;5056801;28;20089;-76
2023/08/05 04:59:59;;;;;;;2.55;1.50;;;;;;;;;;5050672;28;20463;-76
2023/08/05 05:02:25;;;;;;;1.00;1.00;;;;;;;;;;5067503;28;20102;-76
2023/08/05 05:04:50;;;;;;;1.00;1.00;;;;;;;;;;5025640;28;20036;-76
2023/08/05 05:07:15;;;;;;;1.33;1.13;;;;;;;;;;5053000;28;20045;-76
2023/08/05 05:09:41;;;;;;;1.20;1.13;;;;;;;;;;5054671;28;20484;-78
2023/08/05 05:12:07;;;;;;;2.63;2.40;;;;;;;;;;5056243;28;20036;-76
2023/08/05 05:14:33;;;;;;;3.20;2.05;;;;;;;;;;5048368;28;20053;-77
2023/08/05 05:16:58;;;;;;;2.72;2.40;;;;;;;;;;5053383;28;20037;-76
2023/08/05 05:19:24;;;;;;;3.55;2.13;;;;;;;;;;5045104;28;20048;-76
2023/08/05 05:21:49;;;;;;;2.28;2.00;;;;;;;;;;5052351;28;20493;-76
2023/08/05 05:24:15;;;;;;;2.50;2.25;;;;;;;;;;5053870;28;20052;-76
2023/08/05 05:26:40;;;;;;;3.08;2.30;;;;;;;;;;5033944;28;20525;-76
2023/08/05 05:29:05;;;;;;;2.80;2.40;;;;;;;;;;5047646;28;20739;-75
2023/08/05 05:31:31;;;;;;;2.45;2.25;;;;;;;;;;5035234;28;20033;-75
2023/08/05 05:33:56;;;;;;;2.92;2.63;;;;;;;;;;5043096;28;20028;-75
2023/08/05 05:36:22;;;;;;;2.58;2.38;;;;;;;;;;5056204;28;20032;-75
2023/08/05 05:38:47;;;;;;;2.83;2.63;;;;;;;;;;5053836;28;20033;-75
2023/08/05 05:41:12;;;;;;;2.17;1.60;;;;;;;;;;5054291;28;20614;-75
2023/08/05 05:43:38;;;;;;;3.30;2.50;;;;;;;;;;5038043;28;20060;-75
2023/08/05 05:46:04;;;;;;;2.10;1.88;;;;;;;;;;5051547;28;20037;-75
2023/08/05 05:48:29;;;;;;;1.55;1.45;;;;;;;;;;5040023;28;20040;-74
2023/08/05 05:50:55;;;;;;;2.25;2.00;;;;;;;;;;5050644;28;20044;-75
2023/08/05 05:53:21;;;;;;;2.20;2.00;;;;;;;;;;5050253;28;20059;-75
2023/08/05 05:55:50;;;;;;;2.85;2.38;;;;;;;;;;5054187;28;20135;-75
2023/08/05 05:58:15;;;;;;;12.95;3.70;;;;;;;;;;5034450;28;20082;-75
2023/08/05 06:00:41;;;;;;;3.58;2.47;;;;;;;;;;5033737;28;20519;-75
2023/08/05 06:03:06;;;;;;;2.85;2.50;;;;;;;;;;5020836;28;20060;-75
2023/08/05 06:05:32;;;;;;;3.70;2.90;;;;;;;;;;5039884;28;20049;-75
2023/08/05 06:07:57;;;;;;;1.27;0.73;;;;;;;;;;5048590;28;20041;-75
2023/08/05 06:10:23;;;;;;;2.67;2.47;;;;;;;;;;5041261;28;20037;-75
2023/08/05 06:12:49;;;;;;;2.65;2.03;;;;;;;;;;5034428;28;20080;-76
2023/08/05 06:15:14;;;;;;;2.53;1.88;;;;;;;;;;5043691;28;20163;-75
2023/08/05 06:17:40;;;;;;;1.33;1.20;;;;;;;;;;5051072;28;20119;-75
2023/08/05 06:20:06;;;;;;;3.63;2.70;;;;;;;;;;5027652;28;20041;-75
2023/08/05 06:22:32;;;;;;;3.95;2.97;;;;;;;;;;5040057;28;20029;-75
2023/08/05 06:24:57;;;;;;;4.18;3.78;;;;;;;;;;5058645;28;20835;-75
2023/08/05 06:27:22;;;;;;;1.52;1.15;;;;;;;;;;5060065;28;20093;-75
2023/08/05 06:29:48;;;;;;;3.90;3.40;;;;;;;;;;5045053;28;20067;-75
2023/08/05 06:32:13;;;;;;;4.00;3.60;;;;;;;;;;5050789;28;20041;-76
2023/08/05 06:34:39;;;;;;;3.83;2.83;;;;;;;;;;5057329;28;20043;-76
2023/08/05 06:37:04;;;;;;;4.00;3.60;;;;;;;;;;5056079;28;20037;-76
2023/08/05 06:39:32;;;;;;;1.98;1.52;;;;;;;;;;5055595;28;20052;-76
2023/08/05 06:41:58;;;;;;;5.90;3.85;;;;;;;;;;5052743;28;20177;-76
2023/08/05 06:44:23;;;;;;;6.35;3.72;;;;;;;;;;5033647;28;20036;-76
2023/08/05 06:46:49;;;;;;;5.30;3.70;;;;;;;;;;5045993;28;20524;-77
2023/08/05 06:49:14;;;;;;;4.32;3.50;;;;;;;;;;5045011;28;20098;-78
2023/08/05 06:51:39;;;;;;;4.13;3.58;;;;;;;;;;5052942;28;20033;-77
2023/08/05 06:54:05;;;;;;;3.47;2.92;;;;;;;;;;5049777;28;20695;-77
2023/08/05 06:56:30;;;;;;;4.75;4.30;;;;;;;;;;5055290;28;20036;-77
2023/08/05 06:58:56;;;;;;;5.60;3.75;;;;;;;;;;5052998;28;20044;-77
2023/08/05 07:01:21;;;;;;;4.03;3.42;;;;;;;;;;5049986;28;20093;-77
2023/08/05 07:03:49;;;;;;;4.35;3.20;;;;;;;;;;5053391;28;20907;-77
2023/08/05 07:06:14;;;;;;;4.78;3.45;;;;;;;;;;5063746;28;20522;-77
2023/08/05 07:08:40;;;;;;;9.00;3.42;;;;;;;;;;5037559;28;20498;-77
2023/08/05 07:11:05;;;;;;;6.32;3.63;;;;;;;;;;5049541;28;20041;-77
2023/08/05 07:13:31;;;;;;;4.18;3.55;;;;;;;;;;5027888;28;20037;-77
2023/08/05 07:16:00;;;;;;;5.75;3.38;;;;;;;;;;5029951;28;20074;-76
2023/08/05 07:18:26;;;;;;;5.55;3.78;;;;;;;;;;5032643;28;20043;-77
2023/08/05 07:20:52;;;;;;;3.72;3.42;;;;;;;;;;5041297;28;20033;-75
2023/08/05 07:23:17;;;;;;;1.75;1.63;;;;;;;;;;5036435;28;20033;-76
2023/08/05 07:25:42;;;;;;;5.07;3.80;;;;;;;;;;5004017;28;20073;-77
2023/08/05 07:28:08;;;;;;;3.97;3.42;;;;;;;;;;5024672;28;20033;-76
2023/08/05 07:30:33;;;;;;;3.92;2.95;;;;;;;;;;5025300;28;20564;-77
2023/08/05 07:32:59;;;;;;;4.85;3.13;;;;;;;;;;5018826;28;20040;-76
2023/08/05 07:35:28;;;;;;;5.20;3.42;;;;;;;;;;5027212;28;20068;-77
2023/08/05 07:37:55;;;;;;;1.90;1.75;;;;;;;;;;5018022;28;20030;-77
2023/08/05 07:40:20;;;;;;;4.80;3.67;;;;;;;;;;5017534;28;20037;-78
2023/08/05 07:42:48;;;;;;;5.18;3.70;;;;;;;;;;5031896;28;20047;-77
2023/08/05 07:45:17;;;;;;;4.03;3.63;;;;;;;;;;5029551;28;20046;-77
2023/08/05 07:47:43;;;;;;;4.22;3.45;;;;;;;;;;5028736;28;20030;-76
2023/08/05 07:50:10;;;;;;;4.65;3.67;;;;;;;;;;5026635;28;20628;-76
2023/08/05 07:52:39;;;;;;;4.53;3.38;;;;;;;;;;5026864;28;20039;-77
2023/08/05 07:55:04;;;;;;;5.20;3.45;;;;;;;;;;5012518;28;20040;-77
2023/08/05 07:57:30;;;;;;;4.40;3.97;;;;;;;;;;5014595;28;20127;-76
2023/08/05 07:59:56;;;;;;;2.15;1.90;;;;;;;;;;5029605;28;20048;-76
2023/08/05 08:02:22;;;;;;;4.80;3.70;;;;;;;;;;5027959;28;20057;-76
2023/08/05 08:04:49;;;;;;;4.60;3.47;;;;;;;;;;5026206;28;20079;-76
2023/08/05 08:07:14;;;;;;;4.80;3.60;;;;;;;;;;4994505;28;20041;-76
2023/08/05 08:09:40;;;;;;;4.38;3.38;;;;;;;;;;5019566;28;20096;-75
2023/08/05 08:12:06;;;;;;;5.82;3.15;;;;;;;;;;5022050;28;20052;-76
2023/08/05 08:14:31;;;;;;;3.65;2.72;;;;;;;;;;5027836;28;20065;-76
2023/08/05 08:16:57;;;;;;;3.67;3.08;;;;;;;;;;5032571;28;20048;-76
2023/08/05 08:19:23;;;;;;;4.00;3.10;;;;;;;;;;5033447;28;20029;-76
2023/08/05 08:21:48;;;;;;;3.50;2.63;;;;;;;;;;5015640;28;20571;-77
2023/08/05 08:24:14;;;;;;;3.30;3.00;;;;;;;;;;5002098;28;20041;-77
2023/08/05 08:26:39;;;;;;;2.92;2.70;;;;;;;;;;5028260;28;20095;-76
2023/08/05 08:29:04;;;;;;;3.92;2.85;;;;;;;;;;5024360;28;20076;-76
2023/08/05 08:31:31;;;;;;;3.92;2.80;;;;;;;;;;5025995;28;20041;-76
2023/08/05 08:33:57;;;;;;;3.38;2.70;;;;;;;;;;5011468;28;20510;-77
2023/08/05 08:36:24;;;;;;;3.03;2.72;;;;;;;;;;5018599;28;20037;-77
2023/08/05 08:38:49;;;;;;;2.78;2.58;;;;;;;;;;5029799;28;20529;-76
2023/08/05 08:41:15;;;;;;;2.70;2.45;;;;;;;;;;5029665;28;20128;-77
2023/08/05 08:43:42;;;;;;;4.07;2.70;;;;;;;;;;5026740;28;20152;-78
2023/08/05 08:46:09;;;;;;;3.10;2.45;;;;;;;;;;5034056;28;20037;-77
2023/08/05 08:48:36;;;;;;;3.85;2.60;;;;;;;;;;5022825;28;20068;-77
2023/08/05 08:51:03;;;;;;;4.22;2.80;;;;;;;;;;5030487;28;20054;-76
2023/08/05 08:53:31;;;;;;;3.72;2.90;;;;;;;;;;5021266;28;20069;-77
2023/08/05 08:55:56;;;;;;;2.03;1.92;;;;;;;;;;5028207;28;20045;-77
2023/08/05 08:58:22;;;;;;;4.45;2.45;;;;;;;;;;5030141;28;20088;-76
2023/08/05 09:00:48;;;;;;;2.70;2.50;;;;;;;;;;5029504;28;20484;-76
2023/08/05 09:03:14;;;;;;;4.95;2.38;;;;;;;;;;5023037;28;20041;-76
2023/08/05 09:05:44;;;;;;;3.35;2.28;;;;;;;;;;5036443;28;20040;-76
2023/08/05 09:08:09;;;;;;;4.40;2.42;;;;;;;;;;5033478;28;20410;-76
2023/08/05 09:10:36;;;;;;;2.80;2.28;;;;;;;;;;5030531;28;20040;-76
2023/08/05 09:13:01;;;;;;;2.95;2.10;;;;;;;;;;5024748;28;20050;-76
2023/08/05 09:15:40;;;;;;;2.53;2.15;;;;;;;;;;5031778;28;20044;-76
2023/08/05 09:18:07;;;;;;;2.25;2.10;;;;;;;;;;5019382;28;20483;-76
2023/08/05 09:20:34;;;;;;;3.00;2.40;;;;;;;;;;5025578;28;20040;-76
2023/08/05 09:23:01;;;;;;;2.20;2.00;;;;;;;;;;5054342;28;20662;-76
2023/08/05 09:25:29;;;;;;;1.60;1.50;;;;;;;;;;5046797;28;20146;-76
2023/08/05 09:27:55;;;;;;;3.83;2.40;;;;;;;;;;5050173;28;20520;-76
2023/08/05 09:30:22;;;;;;;3.17;2.53;;;;;;;;;;5044068;28;20535;-76
2023/08/05 09:32:48;;;;;;;3.17;2.30;;;;;;;;;;5042339;28;20041;-76
2023/08/05 09:35:15;;;;;;;2.60;2.40;;;;;;;;;;5049363;28;20086;-76
2023/08/05 09:37:48;;;;;;;2.03;1.85;;;;;;;;;;5039764;28;20028;-76
2023/08/05 09:40:24;;;;;;;3.67;2.60;;;;;;;;;;5048501;28;20464;-76
2023/08/05 09:42:51;;;;;;;3.55;2.20;;;;;;;;;;5034515;28;20043;-76
2023/08/05 09:45:18;;;;;;;2.40;2.15;;;;;;;;;;5042272;28;20045;-76
2023/08/05 09:47:47;;;;;;;3.00;2.10;;;;;;;;;;5053441;28;20028;-77
2023/08/05 09:50:15;;;;;;;2.28;2.10;;;;;;;;;;5049830;28;20132;-76
2023/08/05 09:52:41;;;;;;;4.20;2.20;;;;;;;;;;5044479;28;20039;-76
2023/08/05 09:55:12;;;;;;;3.28;2.40;;;;;;;;;;5029437;28;20041;-76
2023/08/05 09:57:38;;;;;;;2.58;2.38;;;;;;;;;;5053911;28;20122;-76
2023/08/05 10:00:08;;;;;;;3.50;2.20;;;;;;;;;;5052240;28;20033;-77
2023/08/05 10:02:34;;;;;;;2.70;1.88;;;;;;;;;;5031622;28;20041;-76
2023/08/05 10:05:01;;;;;;;1.80;1.70;;;;;;;;;;5040733;28;20593;-77
2023/08/05 10:07:29;;;;;;;2.45;1.92;;;;;;;;;;5055180;28;20033;-77
2023/08/05 10:09:56;;;;;;;2.22;2.03;;;;;;;;;;5006382;28;20069;-77
2023/08/05 10:12:29;;;;;;;2.35;2.03;;;;;;;;;;5016586;28;20120;-76
2023/08/05 10:14:57;;;;;;;2.65;2.03;;;;;;;;;;5033236;28;20041;-76
2023/08/05 10:17:23;;;;;;;2.90;1.80;;;;;;;;;;5016857;28;20600;-76
2023/08/05 10:19:52;;;;;;;1.38;1.27;;;;;;;;;;5015724;28;20076;-76
2023/08/05 10:22:23;;;;;;;2.50;2.10;;;;;;;;;;5014486;28;20045;-76
2023/08/05 10:24:56;;;;;;;1.90;1.80;;;;;;;;;;5020781;28;20689;-76
2023/08/05 10:27:35;;;;;;;1.92;1.73;;;;;;;;;;5013184;28;20067;-77
2023/08/05 10:30:13;;;;;;;4.55;2.10;;;;;;;;;;5012052;28;20086;-77
2023/08/05 10:32:58;;;;;;;1.45;1.35;;;;;;;;;;5001339;28;20394;-77
2023/08/05 10:35:43;;;;;;;2.63;1.88;;;;;;;;;;5015028;28;20029;-77
2023/08/05 10:38:19;;;;;;;2.42;1.80;;;;;;;;;;5022813;28;20053;-76
2023/08/05 10:40:48;;;;;;;2.47;1.75;;;;;;;;;;5006577;28;20040;-76
2023/08/05 10:43:31;;;;;;;1.70;1.60;;;;;;;;;;5000126;28;20029;-76
2023/08/05 10:46:06;;;;;;;3.70;1.90;;;;;;;;;;5002382;28;20052;-76
2023/08/05 10:48:34;;;;;;;3.03;2.30;;;;;;;;;;5032195;28;20067;-77
2023/08/05 10:51:08;;;;;;;1.70;1.60;;;;;;;;;;5027318;28;20109;-76
2023/08/05 10:53:34;;;;;;;2.58;2.20;;;;;;;;;;5022681;28;20044;-76
2023/08/05 10:55:59;;;;;;;2.50;1.75;;;;;;;;;;5044498;28;20040;-77
2023/08/05 10:58:29;;;;;;;2.30;2.10;;;;;;;;;;5050711;28;20501;-77
2023/08/05 11:01:01;;;;;;;2.38;2.17;;;;;;;;;;5043563;28;20106;-76
2023/08/05 11:03:43;;;;;;;2.10;1.90;;;;;;;;;;5050252;28;20431;-77
2023/08/05 11:06:10;;;;;;;2.08;1.88;;;;;;;;;;5042842;28;20501;-77
2023/08/05 11:08:38;;;;;;;2.35;2.15;;;;;;;;;;5049626;28;20124;-77
2023/08/05 11:11:08;;;;;;;2.00;1.90;;;;;;;;;;5045320;28;20036;-76
2023/08/05 11:13:39;;;;;;;2.13;2.00;;;;;;;;;;5044714;28;20051;-77
2023/08/05 11:16:08;;;;;;;2.42;2.03;;;;;;;;;;5048564;28;20040;-76
2023/08/05 11:18:34;;;;;;;2.33;2.13;;;;;;;;;;5020508;28;20484;-76
2023/08/05 11:21:01;;;;;;;2.30;2.20;;;;;;;;;;5043743;28;20080;-77
2023/08/05 11:23:27;;;;;;;4.03;2.30;;;;;;;;;;5039235;28;20037;-77
2023/08/05 11:25:53;;;;;;;2.95;2.00;;;;;;;;;;5019969;28;20044;-77
2023/08/05 11:28:23;;;;;;;2.17;1.90;;;;;;;;;;5029633;28;20029;-76
2023/08/05 11:30:48;;;;;;;1.83;1.73;;;;;;;;;;4989011;28;20498;-77
2023/08/05 11:33:14;;;;;;;1.80;1.70;;;;;;;;;;5021102;28;20055;-76
2023/08/05 11:35:45;;;;;;;1.95;1.85;;;;;;;;;;5029680;28;20042;-76
2023/08/05 11:38:11;;;;;;;1.88;1.77;;;;;;;;;;5028379;28;20033;-77
2023/08/05 11:40:41;;;;;;;2.17;1.98;;;;;;;;;;5023233;28;20513;-76
2023/08/05 11:43:07;;;;;;;1.48;1.38;;;;;;;;;;5014968;28;20122;-77
2023/08/05 11:45:37;;;;;;;2.33;1.52;;;;;;;;;;5016504;28;20057;-76
2023/08/05 11:48:03;;;;;;;1.80;1.70;;;;;;;;;;5011464;28;20493;-77
2023/08/05 11:50:35;;;;;;;1.88;1.77;;;;;;;;;;5025377;28;20073;-76
2023/08/05 11:53:05;;;;;;;1.85;1.73;;;;;;;;;;5016135;28;20044;-77
2023/08/05 11:55:34;;;;;;;1.67;1.58;;;;;;;;;;5023172;28;20041;-76
2023/08/05 11:58:04;;;;;;;1.60;1.50;;;;;;;;;;5010037;28;20037;-77
2023/08/05 12:00:29;;;;;;;3.05;2.00;;;;;;;;;;5017331;28;20033;-77
2023/08/05 12:02:55;;;;;;;2.38;1.98;;;;;;;;;;5025184;28;20049;-76
2023/08/05 12:05:22;;;;;;;1.67;1.58;;;;;;;;;;5030211;28;20095;-77
2023/08/05 12:07:47;;;;;;;1.77;1.48;;;;;;;;;;5027738;28;20056;-77
2023/08/05 12:10:16;;;;;;;1.90;1.70;;;;;;;;;;5002570;28;20033;-77
2023/08/05 12:12:45;;;;;;;2.60;1.70;;;;;;;;;;5029197;28;20460;-77
2023/08/05 12:15:26;;;;;;;3.00;1.80;;;;;;;;;;5025845;28;20084;-77
2023/08/05 12:18:06;;;;;;;3.42;1.60;;;;;;;;;;5024160;28;20045;-77
2023/08/05 12:20:35;;;;;;;1.73;1.55;;;;;;;;;;5022634;28;20132;-76
2023/08/05 12:23:01;;;;;;;2.95;1.65;;;;;;;;;;5017199;28;20046;-77
2023/08/05 12:25:29;;;;;;;2.55;1.52;;;;;;;;;;5020198;28;20049;-77
2023/08/05 12:27:55;;;;;;;2.00;1.90;;;;;;;;;;5018953;28;20033;-77
2023/08/05 12:30:21;;;;;;;1.60;1.50;;;;;;;;;;5010693;28;20119;-76
2023/08/05 12:32:47;;;;;;;1.77;1.67;;;;;;;;;;5029072;28;20065;-76
2023/08/05 12:35:12;;;;;;;1.40;1.30;;;;;;;;;;5002274;28;20049;-76
2023/08/05 12:37:41;;;;;;;1.98;1.50;;;;;;;;;;5027724;28;20041;-76
2023/08/05 12:40:08;;;;;;;1.60;1.50;;;;;;;;;;5023631;28;20122;-77
2023/08/05 12:42:34;;;;;;;2.25;1.40;;;;;;;;;;5030341;28;20434;-77
2023/08/05 12:45:07;;;;;;;2.10;1.70;;;;;;;;;;5032248;28;20098;-76
2023/08/05 12:47:33;;;;;;;1.17;1.10;;;;;;;;;;5036127;28;20088;-78
2023/08/05 12:49:59;;;;;;;1.30;1.20;;;;;;;;;;5049588;28;20128;-77
2023/08/05 12:52:26;;;;;;;2.13;1.38;;;;;;;;;;5052575;28;20136;-77
2023/08/05 12:54:51;;;;;;;2.10;1.38;;;;;;;;;;5048753;28;20101;-77
2023/08/05 12:57:17;;;;;;;1.40;1.30;;;;;;;;;;5047933;28;20146;-76
2023/08/05 12:59:42;;;;;;;1.40;1.30;;;;;;;;;;5031901;28;20655;-76
2023/08/05 13:02:07;;;;;;;1.10;1.00;;;;;;;;;;5043967;28;20553;-77
2023/08/05 13:04:33;;;;;;;1.95;1.20;;;;;;;;;;5054173;28;20037;-78
2023/08/05 13:06:58;;;;;;;1.65;1.40;;;;;;;;;;5056974;28;20036;-77
2023/08/05 13:09:24;;;;;;;1.45;1.23;;;;;;;;;;5050447;28;20056;-77
2023/08/05 13:11:49;;;;;;;1.48;1.30;;;;;;;;;;5052563;28;20040;-77
2023/08/05 13:14:15;;;;;;;2.20;1.48;;;;;;;;;;5041231;28;20029;-77
2023/08/05 13:16:40;;;;;;;1.60;1.50;;;;;;;;;;5042585;28;20477;-77
2023/08/05 13:19:09;;;;;;;2.40;1.20;;;;;;;;;;5035046;28;20560;-77
2023/08/05 13:21:36;;;;;;;1.60;1.23;;;;;;;;;;5037701;28;20639;-77
2023/08/05 13:24:02;;;;;;;1.30;1.10;;;;;;;;;;5045510;28;20032;-77
2023/08/05 13:26:29;;;;;;;2.38;1.48;;;;;;;;;;5054041;28;20044;-77
2023/08/05 13:28:54;;;;;;;2.00;1.40;;;;;;;;;;5054769;28;20029;-77
2023/08/05 13:31:20;;;;;;;1.75;1.27;;;;;;;;;;5032493;28;20034;-77
2023/08/05 13:33:45;;;;;;;1.30;1.20;;;;;;;;;;5049124;28;20377;-77
2023/08/05 13:36:10;;;;;;;1.17;1.17;;;;;;;;;;5056712;28;20120;-77
2023/08/05 13:38:36;;;;;;;1.40;1.30;;;;;;;;;;5054413;28;20500;-78
2023/08/05 13:41:01;;;;;;;1.05;1.05;;;;;;;;;;5051296;28;20044;-78
2023/08/05 13:43:26;;;;;;;2.05;1.35;;;;;;;;;;5049105;28;20057;-76
2023/08/05 13:45:54;;;;;;;1.65;1.20;;;;;;;;;;5052041;28;20066;-76
2023/08/05 13:48:20;;;;;;;1.73;1.30;;;;;;;;;;5035071;28;20032;-77
2023/08/05 13:50:45;;;;;;;1.25;1.23;;;;;;;;;;5051424;28;20048;-78
2023/08/05 13:53:11;;;;;;;1.30;1.20;;;;;;;;;;5036169;28;20045;-77
2023/08/05 13:55:37;;;;;;;1.30;1.20;;;;;;;;;;5051562;28;20028;-77
2023/08/05 13:58:02;;;;;;;1.00;0.90;;;;;;;;;;5034348;28;20037;-77
2023/08/05 14:00:28;;;;;;;2.55;1.40;;;;;;;;;;5050833;28;20103;-77
2023/08/05 14:02:54;;;;;;;1.67;1.25;;;;;;;;;;5051967;28;20095;-77
2023/08/05 14:05:20;;;;;;;1.55;1.23;;;;;;;;;;5048594;28;20556;-77
2023/08/05 14:07:45;;;;;;;1.10;1.00;;;;;;;;;;5054124;28;20040;-77
2023/08/05 14:10:11;;;;;;;1.40;1.30;;;;;;;;;;5043495;28;20032;-77
2023/08/05 14:12:36;;;;;;;1.42;1.10;;;;;;;;;;5044873;28;20452;-77
2023/08/05 14:15:03;;;;;;;1.42;1.38;;;;;;;;;;5044782;28;20047;-78
2023/08/05 14:17:29;;;;;;;1.50;1.20;;;;;;;;;;5045795;28;20051;-77
2023/08/05 14:19:55;;;;;;;1.30;1.20;;;;;;;;;;5051625;28;20037;-77
2023/08/05 14:22:20;;;;;;;1.88;1.15;;;;;;;;;;5053547;28;20536;-77
2023/08/05 14:24:45;;;;;;;1.35;1.25;;;;;;;;;;5052316;28;20075;-77
2023/08/05 14:27:11;;;;;;;1.55;1.33;;;;;;;;;;5035091;28;20041;-78
2023/08/05 14:29:36;;;;;;;2.10;1.20;;;;;;;;;;5037760;28;20123;-78
2023/08/05 14:32:02;;;;;;;1.65;1.27;;;;;;;;;;5044086;28;20195;-77
2023/08/05 14:34:27;;;;;;;1.85;1.50;;;;;;;;;;5030153;28;20113;-77
2023/08/05 14:36:53;;;;;;;1.08;0.98;;;;;;;;;;5050888;28;20041;-77
2023/08/05 14:39:19;;;;;;;1.40;1.30;;;;;;;;;;5034480;28;20035;-77